sensor_id;sensor_type;location;lat;lon;timestamp;temperature;humidity
14359;DHT22;7263;49.418;11.064;2023-09-19T00:01:08;15.90;99.90
14359;DHT22;7263;49.418;11.064;2023-09-19T00:03:46;15.90;99.90
14359;DHT22;7263;49.418;11.064;2023-09-19T00:06:13;15.80;99.90
14359;DHT22;7263;49.418;11.064;2023-09-19T00:08:41;15.80;99.90
14359;DHT22;7263;49.418;11.064;2023-09-19T00:11:12;15.70;99.90
14359;DHT22;7263;49.418;11.064;2023-09-19T00:13:49;15.70;99.90
14359;DHT22;7263;49.418;11.064;2023-09-19T00:16:16;15.70;99.90
14359;DHT22;7263;49.418;11.064;2023-09-19T00:18:51;15.60;99.90
14359;DHT22;7263;49.418;11.064;2023-09-19T00:21:21;15.60;99.90
14359;DHT22;7263;49.418;11.064;2023-09-19T00:23:52;15.60;99.90
14359;DHT22;7263;49.418;11.064;2023-09-19T00:26:22;15.60;99.90
14359;DHT22;7263;49.418;11.064;2023-09-19T00:28:53;15.50;99.90
14359;DHT22;7263;49.418;11.064;2023-09-19T00:31:22;15.50;99.90
14359;DHT22;7263;49.418;11.064;2023-09-19T00:33:53;15.50;99.90
14359;DHT22;7263;49.418;11.064;2023-09-19T00:36:25;15.40;99.90
14359;DHT22;7263;49.418;11.064;2023-09-19T00:38:52;15.40;99.90
14359;DHT22;7263;49.418;11.064;2023-09-19T00:41:23;15.30;99.90
14359;DHT22;7263;49.418;11.064;2023-09-19T00:43:57;15.30;99.90
14359;DHT22;7263;49.418;11.064;2023-09-19T00:46:28;15.20;99.90
14359;DHT22;7263;49.418;11.064;2023-09-19T00:48:58;15.20;99.90
14359;DHT22;7263;49.418;11.064;2023-09-19T00:51:26;15.20;99.90
14359;DHT22;7263;49.418;11.064;2023-09-19T00:53:58;15.10;99.90
14359;DHT22;7263;49.418;11.064;2023-09-19T00:56:34;15.10;99.90
14359;DHT22;7263;49.418;11.064;2023-09-19T00:59:19;15.10;99.90
14359;DHT22;7263;49.418;11.064;2023-09-19T01:01:50;15.10;99.90
14359;DHT22;7263;49.418;11.064;2023-09-19T01:04:19;15.10;99.90
14359;DHT22;7263;49.418;11.064;2023-09-19T01:06:47;15.10;99.90
14359;DHT22;7263;49.418;11.064;2023-09-19T01:09:18;15.10;99.90
14359;DHT22;7263;49.418;11.064;2023-09-19T01:11:50;15.10;99.90
14359;DHT22;7263;49.418;11.064;2023-09-19T01:14:30;15.20;99.90
14359;DHT22;7263;49.418;11.064;2023-09-19T01:17:05;15.10;99.90
14359;DHT22;7263;49.418;11.064;2023-09-19T01:23:05;15.20;99.90
14359;DHT22;7263;49.418;11.064;2023-09-19T01:29:01;15.20;99.90
14359;DHT22;7263;49.418;11.064;2023-09-19T01:31:37;15.30;99.90
14359;DHT22;7263;49.418;11.064;2023-09-19T01:34:12;15.30;99.90
14359;DHT22;7263;49.418;11.064;2023-09-19T01:36:44;15.30;99.90
14359;DHT22;7263;49.418;11.064;2023-09-19T01:39:12;15.40;99.90
14359;DHT22;7263;49.418;11.064;2023-09-19T01:41:58;15.40;99.90
14359;DHT22;7263;49.418;11.064;2023-09-19T01:44:44;15.40;99.90
14359;DHT22;7263;49.418;11.064;2023-09-19T01:47:26;15.50;99.90
14359;DHT22;7263;49.418;11.064;2023-09-19T01:49:58;15.60;99.90
14359;DHT22;7263;49.418;11.064;2023-09-19T01:52:42;15.60;99.90
14359;DHT22;7263;49.418;11.064;2023-09-19T01:55:10;15.60;99.90
14359;DHT22;7263;49.418;11.064;2023-09-19T01:57:54;15.70;99.90
14359;DHT22;7263;49.418;11.064;2023-09-19T02:00:23;15.70;99.90
14359;DHT22;7263;49.418;11.064;2023-09-19T02:02:57;15.80;99.90
14359;DHT22;7263;49.418;11.064;2023-09-19T02:05:28;15.80;99.90
14359;DHT22;7263;49.418;11.064;2023-09-19T02:07:55;15.80;99.90
14359;DHT22;7263;49.418;11.064;2023-09-19T02:10:26;15.80;99.90
14359;DHT22;7263;49.418;11.064;2023-09-19T02:12:53;15.80;99.90
14359;DHT22;7263;49.418;11.064;2023-09-19T02:15:23;15.80;99.90
14359;DHT22;7263;49.418;11.064;2023-09-19T02:17:50;15.80;99.90
14359;DHT22;7263;49.418;11.064;2023-09-19T02:20:21;15.80;99.90
14359;DHT22;7263;49.418;11.064;2023-09-19T02:22:50;15.80;99.90
14359;DHT22;7263;49.418;11.064;2023-09-19T02:25:19;15.80;99.90
14359;DHT22;7263;49.418;11.064;2023-09-19T02:27:47;15.80;99.90
14359;DHT22;7263;49.418;11.064;2023-09-19T02:30:17;15.90;99.90
14359;DHT22;7263;49.418;11.064;2023-09-19T02:32:46;15.90;99.90
14359;DHT22;7263;49.418;11.064;2023-09-19T02:35:15;15.90;99.90
14359;DHT22;7263;49.418;11.064;2023-09-19T02:37:43;15.90;99.90
14359;DHT22;7263;49.418;11.064;2023-09-19T02:40:14;15.90;99.90
14359;DHT22;7263;49.418;11.064;2023-09-19T02:42:54;16.00;99.90
14359;DHT22;7263;49.418;11.064;2023-09-19T02:45:22;16.00;99.90
14359;DHT22;7263;49.418;11.064;2023-09-19T02:47:49;16.00;99.90
14359;DHT22;7263;49.418;11.064;2023-09-19T02:50:16;16.00;99.90
14359;DHT22;7263;49.418;11.064;2023-09-19T02:52:47;16.00;99.90
14359;DHT22;7263;49.418;11.064;2023-09-19T02:55:20;16.10;99.90
14359;DHT22;7263;49.418;11.064;2023-09-19T02:58:03;16.10;99.90
14359;DHT22;7263;49.418;11.064;2023-09-19T03:00:39;16.10;99.90
14359;DHT22;7263;49.418;11.064;2023-09-19T03:03:07;16.10;99.90
14359;DHT22;7263;49.418;11.064;2023-09-19T03:05:35;16.20;99.90
14359;DHT22;7263;49.418;11.064;2023-09-19T03:08:06;16.20;99.90
14359;DHT22;7263;49.418;11.064;2023-09-19T03:10:36;16.20;99.90
14359;DHT22;7263;49.418;11.064;2023-09-19T03:13:06;16.20;99.90
14359;DHT22;7263;49.418;11.064;2023-09-19T03:15:48;16.20;99.90
14359;DHT22;7263;49.418;11.064;2023-09-19T03:18:15;16.20;99.90
14359;DHT22;7263;49.418;11.064;2023-09-19T03:21:03;16.20;99.90
14359;DHT22;7263;49.418;11.064;2023-09-19T03:23:34;16.20;99.90
14359;DHT22;7263;49.418;11.064;2023-09-19T03:26:02;16.20;99.90
14359;DHT22;7263;49.418;11.064;2023-09-19T03:28:33;16.20;99.90
14359;DHT22;7263;49.418;11.064;2023-09-19T03:31:06;16.20;99.90
14359;DHT22;7263;49.418;11.064;2023-09-19T03:33:33;16.20;99.90
14359;DHT22;7263;49.418;11.064;2023-09-19T03:36:04;16.20;99.90
14359;DHT22;7263;49.418;11.064;2023-09-19T03:38:35;16.20;99.90
14359;DHT22;7263;49.418;11.064;2023-09-19T03:41:05;16.20;99.90
14359;DHT22;7263;49.418;11.064;2023-09-19T03:43:34;16.10;99.90
14359;DHT22;7263;49.418;11.064;2023-09-19T03:46:04;16.10;99.90
14359;DHT22;7263;49.418;11.064;2023-09-19T03:48:33;16.10;99.90
14359;DHT22;7263;49.418;11.064;2023-09-19T03:50:59;16.10;99.90
14359;DHT22;7263;49.418;11.064;2023-09-19T03:53:30;16.10;99.90
14359;DHT22;7263;49.418;11.064;2023-09-19T03:56:01;16.00;99.90
14359;DHT22;7263;49.418;11.064;2023-09-19T03:58:28;16.00;99.90
14359;DHT22;7263;49.418;11.064;2023-09-19T04:00:55;16.00;99.90
14359;DHT22;7263;49.418;11.064;2023-09-19T04:03:23;16.00;99.90
14359;DHT22;7263;49.418;11.064;2023-09-19T04:06:00;15.90;99.90
14359;DHT22;7263;49.418;11.064;2023-09-19T04:08:29;15.90;99.90
14359;DHT22;7263;49.418;11.064;2023-09-19T04:11:05;15.90;99.90
14359;DHT22;7263;49.418;11.064;2023-09-19T04:13:32;15.90;99.90
14359;DHT22;7263;49.418;11.064;2023-09-19T04:15:59;15.90;99.90
14359;DHT22;7263;49.418;11.064;2023-09-19T04:18:27;15.80;99.90
14359;DHT22;7263;49.418;11.064;2023-09-19T04:20:59;15.80;99.90
14359;DHT22;7263;49.418;11.064;2023-09-19T04:23:33;15.80;99.90
14359;DHT22;7263;49.418;11.064;2023-09-19T04:26:01;15.80;99.90
14359;DHT22;7263;49.418;11.064;2023-09-19T04:28:31;15.70;99.90
14359;DHT22;7263;49.418;11.064;2023-09-19T04:30:59;15.70;99.90
14359;DHT22;7263;49.418;11.064;2023-09-19T04:33:29;15.70;99.90
14359;DHT22;7263;49.418;11.064;2023-09-19T04:35:56;15.60;99.90
14359;DHT22;7263;49.418;11.064;2023-09-19T04:38:31;15.60;99.90
14359;DHT22;7263;49.418;11.064;2023-09-19T04:41:07;15.60;99.90
14359;DHT22;7263;49.418;11.064;2023-09-19T04:43:34;15.70;99.90
14359;DHT22;7263;49.418;11.064;2023-09-19T04:46:01;15.70;99.90
14359;DHT22;7263;49.418;11.064;2023-09-19T04:48:31;15.80;99.90
14359;DHT22;7263;49.418;11.064;2023-09-19T04:51:00;15.80;99.90
14359;DHT22;7263;49.418;11.064;2023-09-19T04:53:30;15.80;99.90
14359;DHT22;7263;49.418;11.064;2023-09-19T04:56:04;15.80;99.90
14359;DHT22;7263;49.418;11.064;2023-09-19T04:58:33;15.80;99.90
14359;DHT22;7263;49.418;11.064;2023-09-19T05:01:00;15.80;99.90
14359;DHT22;7263;49.418;11.064;2023-09-19T05:03:29;15.80;99.90
14359;DHT22;7263;49.418;11.064;2023-09-19T05:06:06;15.80;99.90
14359;DHT22;7263;49.418;11.064;2023-09-19T05:08:43;15.80;99.90
14359;DHT22;7263;49.418;11.064;2023-09-19T05:11:21;15.80;99.90
14359;DHT22;7263;49.418;11.064;2023-09-19T05:13:50;15.80;99.90
14359;DHT22;7263;49.418;11.064;2023-09-19T05:16:25;15.80;99.90
14359;DHT22;7263;49.418;11.064;2023-09-19T05:18:54;15.90;99.90
14359;DHT22;7263;49.418;11.064;2023-09-19T05:21:34;15.90;99.90
14359;DHT22;7263;49.418;11.064;2023-09-19T05:24:04;15.90;99.90
14359;DHT22;7263;49.418;11.064;2023-09-19T05:26:39;15.90;99.90
14359;DHT22;7263;49.418;11.064;2023-09-19T05:29:13;15.90;99.90
14359;DHT22;7263;49.418;11.064;2023-09-19T05:31:40;15.90;99.90
14359;DHT22;7263;49.418;11.064;2023-09-19T05:34:11;16.00;99.90
14359;DHT22;7263;49.418;11.064;2023-09-19T05:36:40;16.00;99.90
14359;DHT22;7263;49.418;11.064;2023-09-19T05:39:07;16.00;99.90
14359;DHT22;7263;49.418;11.064;2023-09-19T05:41:39;16.00;99.90
14359;DHT22;7263;49.418;11.064;2023-09-19T05:44:06;16.00;99.90
14359;DHT22;7263;49.418;11.064;2023-09-19T05:46:33;16.00;99.90
14359;DHT22;7263;49.418;11.064;2023-09-19T05:49:05;16.00;99.90
14359;DHT22;7263;49.418;11.064;2023-09-19T05:51:38;16.10;99.90
14359;DHT22;7263;49.418;11.064;2023-09-19T05:54:07;16.10;99.90
14359;DHT22;7263;49.418;11.064;2023-09-19T05:56:43;16.10;99.90
14359;DHT22;7263;49.418;11.064;2023-09-19T05:59:12;16.10;99.90
14359;DHT22;7263;49.418;11.064;2023-09-19T06:01:39;16.10;99.90
14359;DHT22;7263;49.418;11.064;2023-09-19T06:04:14;16.10;99.90
14359;DHT22;7263;49.418;11.064;2023-09-19T06:06:44;16.20;99.90
14359;DHT22;7263;49.418;11.064;2023-09-19T06:09:15;16.20;99.90
14359;DHT22;7263;49.418;11.064;2023-09-19T06:11:44;16.20;99.90
14359;DHT22;7263;49.418;11.064;2023-09-19T06:14:13;16.20;99.90
14359;DHT22;7263;49.418;11.064;2023-09-19T06:16:46;16.30;99.90
14359;DHT22;7263;49.418;11.064;2023-09-19T06:19:13;16.30;99.90
14359;DHT22;7263;49.418;11.064;2023-09-19T06:21:40;16.30;99.90
14359;DHT22;7263;49.418;11.064;2023-09-19T06:24:07;16.40;99.90
14359;DHT22;7263;49.418;11.064;2023-09-19T06:26:33;16.40;99.90
14359;DHT22;7263;49.418;11.064;2023-09-19T06:29:04;16.50;99.90
14359;DHT22;7263;49.418;11.064;2023-09-19T06:31:33;16.60;99.90
14359;DHT22;7263;49.418;11.064;2023-09-19T06:34:04;16.60;99.90
14359;DHT22;7263;49.418;11.064;2023-09-19T06:36:32;16.80;99.90
14359;DHT22;7263;49.418;11.064;2023-09-19T06:38:59;16.80;99.90
14359;DHT22;7263;49.418;11.064;2023-09-19T06:41:26;17.00;99.90
14359;DHT22;7263;49.418;11.064;2023-09-19T06:43:57;17.00;99.90
14359;DHT22;7263;49.418;11.064;2023-09-19T06:46:27;17.00;99.90
14359;DHT22;7263;49.418;11.064;2023-09-19T06:49:01;17.10;99.90
14359;DHT22;7263;49.418;11.064;2023-09-19T06:51:28;17.20;99.90
14359;DHT22;7263;49.418;11.064;2023-09-19T06:54:01;17.40;99.90
14359;DHT22;7263;49.418;11.064;2023-09-19T06:56:36;17.50;99.90
14359;DHT22;7263;49.418;11.064;2023-09-19T06:59:12;17.60;99.90
14359;DHT22;7263;49.418;11.064;2023-09-19T07:01:41;18.50;99.90
14359;DHT22;7263;49.418;11.064;2023-09-19T07:04:12;17.80;99.90
14359;DHT22;7263;49.418;11.064;2023-09-19T07:06:49;18.00;99.90
14359;DHT22;7263;49.418;11.064;2023-09-19T07:09:25;18.10;99.90
14359;DHT22;7263;49.418;11.064;2023-09-19T07:11:53;18.20;99.90
14359;DHT22;7263;49.418;11.064;2023-09-19T07:14:27;18.40;99.90
14359;DHT22;7263;49.418;11.064;2023-09-19T07:17:03;18.60;99.90
14359;DHT22;7263;49.418;11.064;2023-09-19T07:19:30;18.90;99.90
14359;DHT22;7263;49.418;11.064;2023-09-19T07:22:00;19.30;99.90
14359;DHT22;7263;49.418;11.064;2023-09-19T07:24:31;19.80;99.90
14359;DHT22;7263;49.418;11.064;2023-09-19T07:26:58;20.20;99.90
14359;DHT22;7263;49.418;11.064;2023-09-19T07:29:24;20.50;99.90
14359;DHT22;7263;49.418;11.064;2023-09-19T07:31:52;20.90;99.90
14359;DHT22;7263;49.418;11.064;2023-09-19T07:34:23;21.10;99.90
14359;DHT22;7263;49.418;11.064;2023-09-19T07:36:50;21.30;99.90
14359;DHT22;7263;49.418;11.064;2023-09-19T07:39:17;21.40;99.90
14359;DHT22;7263;49.418;11.064;2023-09-19T07:41:44;21.40;99.90
14359;DHT22;7263;49.418;11.064;2023-09-19T07:44:16;21.20;99.90
14359;DHT22;7263;49.418;11.064;2023-09-19T07:46:44;21.00;99.90
14359;DHT22;7263;49.418;11.064;2023-09-19T07:49:14;20.80;99.90
14359;DHT22;7263;49.418;11.064;2023-09-19T07:51:47;20.40;99.90
14359;DHT22;7263;49.418;11.064;2023-09-19T07:54:14;20.30;99.90
14359;DHT22;7263;49.418;11.064;2023-09-19T07:56:48;20.30;99.90
14359;DHT22;7263;49.418;11.064;2023-09-19T07:59:26;20.30;99.90
14359;DHT22;7263;49.418;11.064;2023-09-19T08:01:53;20.40;99.90
14359;DHT22;7263;49.418;11.064;2023-09-19T08:04:20;20.50;99.90
14359;DHT22;7263;49.418;11.064;2023-09-19T08:06:48;20.70;99.90
14359;DHT22;7263;49.418;11.064;2023-09-19T08:12:33;21.50;99.90
14359;DHT22;7263;49.418;11.064;2023-09-19T08:15:01;21.60;99.90
14359;DHT22;7263;49.418;11.064;2023-09-19T08:17:35;21.60;99.90
14359;DHT22;7263;49.418;11.064;2023-09-19T08:20:09;21.90;99.90
14359;DHT22;7263;49.418;11.064;2023-09-19T08:22:47;22.20;99.90
14359;DHT22;7263;49.418;11.064;2023-09-19T08:25:15;22.40;99.90
14359;DHT22;7263;49.418;11.064;2023-09-19T08:27:47;22.30;99.90
14359;DHT22;7263;49.418;11.064;2023-09-19T08:30:24;22.10;99.90
14359;DHT22;7263;49.418;11.064;2023-09-19T08:32:59;21.60;99.90
14359;DHT22;7263;49.418;11.064;2023-09-19T08:35:29;21.50;99.90
14359;DHT22;7263;49.418;11.064;2023-09-19T08:37:59;21.40;99.90
14359;DHT22;7263;49.418;11.064;2023-09-19T08:40:36;21.40;99.90
14359;DHT22;7263;49.418;11.064;2023-09-19T08:43:05;21.40;99.90
14359;DHT22;7263;49.418;11.064;2023-09-19T08:45:38;21.40;99.90
14359;DHT22;7263;49.418;11.064;2023-09-19T08:48:22;21.40;99.90
14359;DHT22;7263;49.418;11.064;2023-09-19T08:50:53;21.30;99.90
14359;DHT22;7263;49.418;11.064;2023-09-19T08:53:36;21.20;99.90
14359;DHT22;7263;49.418;11.064;2023-09-19T08:56:11;21.20;99.90
14359;DHT22;7263;49.418;11.064;2023-09-19T08:58:45;21.20;99.90
14359;DHT22;7263;49.418;11.064;2023-09-19T09:01:16;21.30;99.90
14359;DHT22;7263;49.418;11.064;2023-09-19T09:03:51;21.40;99.90
14359;DHT22;7263;49.418;11.064;2023-09-19T09:06:21;21.50;99.90
14359;DHT22;7263;49.418;11.064;2023-09-19T09:08:50;21.50;99.90
14359;DHT22;7263;49.418;11.064;2023-09-19T09:11:21;21.50;99.90
14359;DHT22;7263;49.418;11.064;2023-09-19T09:13:48;21.70;99.90
14359;DHT22;7263;49.418;11.064;2023-09-19T09:16:15;21.90;99.90
14359;DHT22;7263;49.418;11.064;2023-09-19T09:18:44;21.90;99.90
14359;DHT22;7263;49.418;11.064;2023-09-19T09:21:11;21.90;99.90
14359;DHT22;7263;49.418;11.064;2023-09-19T09:23:42;21.80;99.90
14359;DHT22;7263;49.418;11.064;2023-09-19T09:26:10;21.80;99.90
14359;DHT22;7263;49.418;11.064;2023-09-19T09:28:44;21.80;99.90
14359;DHT22;7263;49.418;11.064;2023-09-19T09:31:29;21.80;99.90
14359;DHT22;7263;49.418;11.064;2023-09-19T09:33:58;21.90;99.90
14359;DHT22;7263;49.418;11.064;2023-09-19T09:36:35;22.20;99.90
14359;DHT22;7263;49.418;11.064;2023-09-19T09:39:02;22.30;99.90
14359;DHT22;7263;49.418;11.064;2023-09-19T09:41:48;22.40;99.90
14359;DHT22;7263;49.418;11.064;2023-09-19T09:44:16;22.40;99.90
14359;DHT22;7263;49.418;11.064;2023-09-19T09:46:48;22.30;99.90
14359;DHT22;7263;49.418;11.064;2023-09-19T09:49:43;22.30;99.90
14359;DHT22;7263;49.418;11.064;2023-09-19T09:52:44;22.10;99.90
14359;DHT22;7263;49.418;11.064;2023-09-19T09:55:14;22.10;99.90
14359;DHT22;7263;49.418;11.064;2023-09-19T09:57:55;22.20;99.90
14359;DHT22;7263;49.418;11.064;2023-09-19T10:00:32;22.20;99.90
14359;DHT22;7263;49.418;11.064;2023-09-19T10:03:19;22.10;99.90
14359;DHT22;7263;49.418;11.064;2023-09-19T10:05:53;21.80;99.90
14359;DHT22;7263;49.418;11.064;2023-09-19T10:08:57;21.60;99.90
14359;DHT22;7263;49.418;11.064;2023-09-19T10:11:47;21.50;99.90
14359;DHT22;7263;49.418;11.064;2023-09-19T10:14:34;21.40;99.90
14359;DHT22;7263;49.418;11.064;2023-09-19T10:17:04;21.40;99.90
14359;DHT22;7263;49.418;11.064;2023-09-19T10:19:37;21.80;99.90
14359;DHT22;7263;49.418;11.064;2023-09-19T10:22:05;22.00;99.90
14359;DHT22;7263;49.418;11.064;2023-09-19T10:24:35;22.10;99.90
14359;DHT22;7263;49.418;11.064;2023-09-19T10:27:10;22.10;99.90
14359;DHT22;7263;49.418;11.064;2023-09-19T10:29:44;22.10;99.90
14359;DHT22;7263;49.418;11.064;2023-09-19T10:32:17;22.00;99.90
14359;DHT22;7263;49.418;11.064;2023-09-19T10:34:47;21.90;99.90
14359;DHT22;7263;49.418;11.064;2023-09-19T10:37:16;21.80;99.90
14359;DHT22;7263;49.418;11.064;2023-09-19T10:39:46;21.90;99.90
14359;DHT22;7263;49.418;11.064;2023-09-19T10:42:18;22.10;99.90
14359;DHT22;7263;49.418;11.064;2023-09-19T10:44:52;22.40;99.90
14359;DHT22;7263;49.418;11.064;2023-09-19T10:47:20;22.60;99.90
14359;DHT22;7263;49.418;11.064;2023-09-19T10:49:57;22.90;99.90
14359;DHT22;7263;49.418;11.064;2023-09-19T10:52:31;23.30;99.90
14359;DHT22;7263;49.418;11.064;2023-09-19T10:55:00;23.60;99.90
14359;DHT22;7263;49.418;11.064;2023-09-19T10:57:37;23.70;99.90
14359;DHT22;7263;49.418;11.064;2023-09-19T11:00:11;23.70;99.90
14359;DHT22;7263;49.418;11.064;2023-09-19T11:03:21;23.90;99.90
14359;DHT22;7263;49.418;11.064;2023-09-19T11:06:12;24.20;99.90
14359;DHT22;7263;49.418;11.064;2023-09-19T11:09:01;24.10;99.90
14359;DHT22;7263;49.418;11.064;2023-09-19T11:11:48;24.00;99.90
14359;DHT22;7263;49.418;11.064;2023-09-19T11:14:43;23.60;99.90
14359;DHT22;7263;49.418;11.064;2023-09-19T11:17:50;23.30;99.90
14359;DHT22;7263;49.418;11.064;2023-09-19T11:20:22;23.00;99.90
14359;DHT22;7263;49.418;11.064;2023-09-19T11:23:24;22.80;99.90
14359;DHT22;7263;49.418;11.064;2023-09-19T11:25:53;22.80;99.90
14359;DHT22;7263;49.418;11.064;2023-09-19T11:28:37;23.10;99.90
14359;DHT22;7263;49.418;11.064;2023-09-19T11:34:41;23.10;99.90
14359;DHT22;7263;49.418;11.064;2023-09-19T11:40:44;23.30;99.90
14359;DHT22;7263;49.418;11.064;2023-09-19T11:43:33;23.30;99.90
14359;DHT22;7263;49.418;11.064;2023-09-19T11:46:08;23.30;99.90
14359;DHT22;7263;49.418;11.064;2023-09-19T11:48:38;23.40;99.90
14359;DHT22;7263;49.418;11.064;2023-09-19T11:51:22;23.40;99.90
14359;DHT22;7263;49.418;11.064;2023-09-19T11:53:53;23.50;99.90
14359;DHT22;7263;49.418;11.064;2023-09-19T11:56:21;23.60;99.90
14359;DHT22;7263;49.418;11.064;2023-09-19T11:58:58;23.60;99.90
14359;DHT22;7263;49.418;11.064;2023-09-19T12:01:38;23.30;99.90
14359;DHT22;7263;49.418;11.064;2023-09-19T12:04:14;22.90;99.90
14359;DHT22;7263;49.418;11.064;2023-09-19T12:06:56;22.50;99.90
14359;DHT22;7263;49.418;11.064;2023-09-19T12:09:26;22.20;99.90
14359;DHT22;7263;49.418;11.064;2023-09-19T12:11:56;22.00;99.90
14359;DHT22;7263;49.418;11.064;2023-09-19T12:14:26;21.90;99.90
14359;DHT22;7263;49.418;11.064;2023-09-19T12:16:58;21.90;99.90
14359;DHT22;7263;49.418;11.064;2023-09-19T12:19:32;21.90;99.90
14359;DHT22;7263;49.418;11.064;2023-09-19T12:22:09;21.80;99.90
14359;DHT22;7263;49.418;11.064;2023-09-19T12:24:39;21.70;99.90
14359;DHT22;7263;49.418;11.064;2023-09-19T12:27:10;21.60;99.90
14359;DHT22;7263;49.418;11.064;2023-09-19T12:29:45;21.60;99.90
14359;DHT22;7263;49.418;11.064;2023-09-19T12:32:12;21.60;99.90
14359;DHT22;7263;49.418;11.064;2023-09-19T12:34:45;21.60;99.90
14359;DHT22;7263;49.418;11.064;2023-09-19T12:37:29;23.10;99.90
14359;DHT22;7263;49.418;11.064;2023-09-19T12:40:06;21.60;99.90
14359;DHT22;7263;49.418;11.064;2023-09-19T12:42:59;21.60;99.90
14359;DHT22;7263;49.418;11.064;2023-09-19T12:45:28;21.60;99.90
14359;DHT22;7263;49.418;11.064;2023-09-19T12:48:18;21.50;99.90
14359;DHT22;7263;49.418;11.064;2023-09-19T12:51:03;21.60;99.90
14359;DHT22;7263;49.418;11.064;2023-09-19T12:53:35;21.50;99.90
14359;DHT22;7263;49.418;11.064;2023-09-19T12:56:10;21.40;99.90
14359;DHT22;7263;49.418;11.064;2023-09-19T12:58:51;21.40;99.90
14359;DHT22;7263;49.418;11.064;2023-09-19T13:01:22;21.40;99.90
14359;DHT22;7263;49.418;11.064;2023-09-19T13:04:10;21.40;99.90
14359;DHT22;7263;49.418;11.064;2023-09-19T13:06:38;21.50;99.90
14359;DHT22;7263;49.418;11.064;2023-09-19T13:09:10;21.60;99.90
14359;DHT22;7263;49.418;11.064;2023-09-19T13:11:38;21.50;99.90
14359;DHT22;7263;49.418;11.064;2023-09-19T13:14:20;21.50;99.90
14359;DHT22;7263;49.418;11.064;2023-09-19T13:17:03;21.40;99.90
14359;DHT22;7263;49.418;11.064;2023-09-19T13:19:44;21.40;99.90
14359;DHT22;7263;49.418;11.064;2023-09-19T13:22:42;21.30;99.90
14359;DHT22;7263;49.418;11.064;2023-09-19T13:25:17;21.30;99.90
14359;DHT22;7263;49.418;11.064;2023-09-19T13:27:49;21.30;99.90
14359;DHT22;7263;49.418;11.064;2023-09-19T13:30:24;21.30;99.90
14359;DHT22;7263;49.418;11.064;2023-09-19T13:33:06;21.30;99.90
14359;DHT22;7263;49.418;11.064;2023-09-19T13:35:35;21.40;99.90
14359;DHT22;7263;49.418;11.064;2023-09-19T13:38:06;21.40;99.90
14359;DHT22;7263;49.418;11.064;2023-09-19T13:40:43;21.50;99.90
14359;DHT22;7263;49.418;11.064;2023-09-19T13:43:10;21.50;99.90
14359;DHT22;7263;49.418;11.064;2023-09-19T13:45:43;21.50;99.90
14359;DHT22;7263;49.418;11.064;2023-09-19T13:48:10;21.50;99.90
14359;DHT22;7263;49.418;11.064;2023-09-19T13:50:48;21.40;99.90
14359;DHT22;7263;49.418;11.064;2023-09-19T13:53:16;21.30;99.90
14359;DHT22;7263;49.418;11.064;2023-09-19T13:55:48;21.20;99.90
14359;DHT22;7263;49.418;11.064;2023-09-19T13:58:17;21.10;99.90
14359;DHT22;7263;49.418;11.064;2023-09-19T14:00:44;21.20;99.90
14359;DHT22;7263;49.418;11.064;2023-09-19T14:03:16;21.20;99.90
14359;DHT22;7263;49.418;11.064;2023-09-19T14:05:49;21.30;99.90
14359;DHT22;7263;49.418;11.064;2023-09-19T14:08:19;21.40;99.90
14359;DHT22;7263;49.418;11.064;2023-09-19T14:10:48;21.50;99.90
14359;DHT22;7263;49.418;11.064;2023-09-19T14:13:22;21.50;99.90
14359;DHT22;7263;49.418;11.064;2023-09-19T14:15:51;21.50;99.90
14359;DHT22;7263;49.418;11.064;2023-09-19T14:18:18;21.60;99.90
14359;DHT22;7263;49.418;11.064;2023-09-19T14:20:52;21.60;99.90
14359;DHT22;7263;49.418;11.064;2023-09-19T14:23:21;21.50;99.90
14359;DHT22;7263;49.418;11.064;2023-09-19T14:26:04;21.40;99.90
14359;DHT22;7263;49.418;11.064;2023-09-19T14:28:37;21.40;99.90
14359;DHT22;7263;49.418;11.064;2023-09-19T14:31:06;21.40;99.90
14359;DHT22;7263;49.418;11.064;2023-09-19T14:33:35;21.30;99.90
14359;DHT22;7263;49.418;11.064;2023-09-19T14:36:10;21.20;99.90
14359;DHT22;7263;49.418;11.064;2023-09-19T14:38:45;21.10;99.90
14359;DHT22;7263;49.418;11.064;2023-09-19T14:41:15;21.00;99.90
14359;DHT22;7263;49.418;11.064;2023-09-19T14:43:44;20.90;99.90
14359;DHT22;7263;49.418;11.064;2023-09-19T14:46:11;20.80;99.90
14359;DHT22;7263;49.418;11.064;2023-09-19T14:48:43;20.80;99.90
14359;DHT22;7263;49.418;11.064;2023-09-19T14:51:13;20.80;99.90
14359;DHT22;7263;49.418;11.064;2023-09-19T14:53:43;20.70;99.90
14359;DHT22;7263;49.418;11.064;2023-09-19T14:56:14;20.70;99.90
14359;DHT22;7263;49.418;11.064;2023-09-19T14:58:44;20.70;99.90
14359;DHT22;7263;49.418;11.064;2023-09-19T15:01:12;20.70;99.90
14359;DHT22;7263;49.418;11.064;2023-09-19T15:03:39;20.60;99.90
14359;DHT22;7263;49.418;11.064;2023-09-19T15:06:07;20.50;99.90
14359;DHT22;7263;49.418;11.064;2023-09-19T15:08:35;20.60;99.90
14359;DHT22;7263;49.418;11.064;2023-09-19T15:11:07;20.60;99.90
14359;DHT22;7263;49.418;11.064;2023-09-19T15:13:39;20.60;99.90
14359;DHT22;7263;49.418;11.064;2023-09-19T15:16:12;20.70;99.90
14359;DHT22;7263;49.418;11.064;2023-09-19T15:18:40;20.80;99.90
14359;DHT22;7263;49.418;11.064;2023-09-19T15:21:10;20.80;99.90
14359;DHT22;7263;49.418;11.064;2023-09-19T15:23:38;20.90;99.90
14359;DHT22;7263;49.418;11.064;2023-09-19T15:26:13;20.90;99.90
14359;DHT22;7263;49.418;11.064;2023-09-19T15:28:50;20.90;99.90
14359;DHT22;7263;49.418;11.064;2023-09-19T15:31:26;20.90;99.90
14359;DHT22;7263;49.418;11.064;2023-09-19T15:33:53;20.90;99.90
14359;DHT22;7263;49.418;11.064;2023-09-19T15:36:25;20.80;99.90
14359;DHT22;7263;49.418;11.064;2023-09-19T15:39:02;20.80;99.90
14359;DHT22;7263;49.418;11.064;2023-09-19T15:41:38;20.80;99.90
14359;DHT22;7263;49.418;11.064;2023-09-19T15:44:15;20.80;99.90
14359;DHT22;7263;49.418;11.064;2023-09-19T15:46:45;20.70;99.90
14359;DHT22;7263;49.418;11.064;2023-09-19T15:49:12;20.70;99.90
14359;DHT22;7263;49.418;11.064;2023-09-19T15:51:42;20.60;99.90
14359;DHT22;7263;49.418;11.064;2023-09-19T15:54:11;20.60;99.90
14359;DHT22;7263;49.418;11.064;2023-09-19T15:56:41;20.50;99.90
14359;DHT22;7263;49.418;11.064;2023-09-19T15:59:12;20.40;99.90
14359;DHT22;7263;49.418;11.064;2023-09-19T16:01:44;20.40;99.90
14359;DHT22;7263;49.418;11.064;2023-09-19T16:04:12;20.30;99.90
14359;DHT22;7263;49.418;11.064;2023-09-19T16:06:45;20.20;99.90
14359;DHT22;7263;49.418;11.064;2023-09-19T16:09:12;20.20;99.90
14359;DHT22;7263;49.418;11.064;2023-09-19T16:11:46;20.10;99.90
14359;DHT22;7263;49.418;11.064;2023-09-19T16:14:25;20.10;99.90
14359;DHT22;7263;49.418;11.064;2023-09-19T16:17:02;20.00;99.90
14359;DHT22;7263;49.418;11.064;2023-09-19T16:19:29;20.00;99.90
14359;DHT22;7263;49.418;11.064;2023-09-19T16:21:57;20.00;99.90